sensor_id;sensor_type;location;lat;lon;timestamp;pressure;altitude;pressure_sealevel;temperature;humidity
49178;BME280;35016;55.674;37.468;2023-04-06T00:00:25;99694.69;;;5.77;58.21
49178;BME280;35016;55.674;37.468;2023-04-06T00:02:52;99691.19;;;5.77;57.72
49178;BME280;35016;55.674;37.468;2023-04-06T00:05:19;99694.91;;;5.76;57.94
49178;BME280;35016;55.674;37.468;2023-04-06T00:07:47;99693.25;;;5.75;58.38
49178;BME280;35016;55.674;37.468;2023-04-06T00:10:15;99690.56;;;5.75;57.80
49178;BME280;35016;55.674;37.468;2023-04-06T00:12:43;99688.34;;;5.72;58.35
49178;BME280;35016;55.674;37.468;2023-04-06T00:15:10;99697.47;;;5.71;58.03
49178;BME280;35016;55.674;37.468;2023-04-06T00:17:37;99686.91;;;5.69;58.32
49178;BME280;35016;55.674;37.468;2023-04-06T00:20:04;99700.59;;;5.68;57.94
49178;BME280;35016;55.674;37.468;2023-04-06T00:22:32;99696.25;;;5.67;57.81
49178;BME280;35016;55.674;37.468;2023-04-06T00:24:59;99704.56;;;5.65;58.44
49178;BME280;35016;55.674;37.468;2023-04-06T00:27:26;99705.00;;;5.62;58.86
49178;BME280;35016;55.674;37.468;2023-04-06T00:29:53;99710.59;;;5.60;58.22
49178;BME280;35016;55.674;37.468;2023-04-06T00:32:20;99701.13;;;5.58;58.24
49178;BME280;35016;55.674;37.468;2023-04-06T00:34:47;99704.84;;;5.57;58.61
49178;BME280;35016;55.674;37.468;2023-04-06T00:37:14;99704.47;;;5.53;58.61
49178;BME280;35016;55.674;37.468;2023-04-06T00:39:41;99692.66;;;5.54;58.15
49178;BME280;35016;55.674;37.468;2023-04-06T00:42:10;99695.34;;;5.54;57.98
49178;BME280;35016;55.674;37.468;2023-04-06T00:44:39;99699.09;;;5.53;58.17
49178;BME280;35016;55.674;37.468;2023-04-06T00:47:07;99696.63;;;5.52;58.03
49178;BME280;35016;55.674;37.468;2023-04-06T00:49:34;99689.59;;;5.51;58.38
49178;BME280;35016;55.674;37.468;2023-04-06T00:52:01;99694.34;;;5.49;58.47
49178;BME280;35016;55.674;37.468;2023-04-06T00:54:28;99693.75;;;5.47;57.93
49178;BME280;35016;55.674;37.468;2023-04-06T00:56:57;99699.34;;;5.45;58.70
49178;BME280;35016;55.674;37.468;2023-04-06T00:59:25;99688.81;;;5.44;57.89
49178;BME280;35016;55.674;37.468;2023-04-06T01:01:53;99691.50;;;5.44;58.57
49178;BME280;35016;55.674;37.468;2023-04-06T01:04:33;99693.38;;;5.43;58.30
49178;BME280;35016;55.674;37.468;2023-04-06T01:07:01;99693.38;;;5.43;58.71
49178;BME280;35016;55.674;37.468;2023-04-06T01:09:37;99693.16;;;5.45;58.73
49178;BME280;35016;55.674;37.468;2023-04-06T01:12:12;99689.88;;;5.43;58.30
49178;BME280;35016;55.674;37.468;2023-04-06T01:14:39;99684.09;;;5.39;58.56
49178;BME280;35016;55.674;37.468;2023-04-06T01:17:06;99686.41;;;5.36;58.55
49178;BME280;35016;55.674;37.468;2023-04-06T01:19:33;99683.94;;;5.34;58.33
49178;BME280;35016;55.674;37.468;2023-04-06T01:22:00;99682.53;;;5.32;58.19
49178;BME280;35016;55.674;37.468;2023-04-06T01:24:30;99681.72;;;5.31;57.98
49178;BME280;35016;55.674;37.468;2023-04-06T01:27:03;99680.06;;;5.30;58.57
49178;BME280;35016;55.674;37.468;2023-04-06T01:29:51;99674.91;;;5.28;58.87
49178;BME280;35016;55.674;37.468;2023-04-06T01:32:31;99677.22;;;5.25;58.88
49178;BME280;35016;55.674;37.468;2023-04-06T01:34:59;99680.72;;;5.25;58.28
49178;BME280;35016;55.674;37.468;2023-04-06T01:37:27;99674.31;;;5.26;58.59
49178;BME280;35016;55.674;37.468;2023-04-06T01:39:56;99673.50;;;5.26;59.15
49178;BME280;35016;55.674;37.468;2023-04-06T01:42:36;99682.16;;;5.28;59.06
49178;BME280;35016;55.674;37.468;2023-04-06T01:45:05;99682.38;;;5.26;58.50
49178;BME280;35016;55.674;37.468;2023-04-06T01:47:32;99676.19;;;5.26;58.58
49178;BME280;35016;55.674;37.468;2023-04-06T01:49:59;99678.50;;;5.22;58.92
49178;BME280;35016;55.674;37.468;2023-04-06T01:52:28;99666.50;;;5.18;59.30
49178;BME280;35016;55.674;37.468;2023-04-06T01:54:55;99677.09;;;5.13;58.83
49178;BME280;35016;55.674;37.468;2023-04-06T01:57:45;99675.28;;;5.07;58.69
49178;BME280;35016;55.674;37.468;2023-04-06T02:00:28;99684.84;;;5.03;58.69
49178;BME280;35016;55.674;37.468;2023-04-06T02:02:55;99687.97;;;5.00;59.06
49178;BME280;35016;55.674;37.468;2023-04-06T02:05:25;99683.03;;;4.97;58.88
49178;BME280;35016;55.674;37.468;2023-04-06T02:07:54;99677.06;;;4.95;59.07
49178;BME280;35016;55.674;37.468;2023-04-06T02:10:29;99683.69;;;4.92;59.05
49178;BME280;35016;55.674;37.468;2023-04-06T02:13:00;99698.34;;;4.90;59.18
49178;BME280;35016;55.674;37.468;2023-04-06T02:15:27;99696.09;;;4.87;59.81
49178;BME280;35016;55.674;37.468;2023-04-06T02:17:54;99691.16;;;4.84;59.14
49178;BME280;35016;55.674;37.468;2023-04-06T02:20:21;99691.59;;;4.81;59.23
49178;BME280;35016;55.674;37.468;2023-04-06T02:22:49;99695.34;;;4.80;59.21
49178;BME280;35016;55.674;37.468;2023-04-06T02:25:16;99689.34;;;4.78;59.69
49178;BME280;35016;55.674;37.468;2023-04-06T02:27:43;99692.47;;;4.75;59.66
49178;BME280;35016;55.674;37.468;2023-04-06T02:30:10;99703.44;;;4.73;59.43
49178;BME280;35016;55.674;37.468;2023-04-06T02:32:37;99695.81;;;4.70;59.39
49178;BME280;35016;55.674;37.468;2023-04-06T02:35:04;99698.50;;;4.70;59.69
49178;BME280;35016;55.674;37.468;2023-04-06T02:37:33;99709.03;;;4.72;59.71
49178;BME280;35016;55.674;37.468;2023-04-06T02:40:00;99706.13;;;4.73;58.95
49178;BME280;35016;55.674;37.468;2023-04-06T02:42:29;99709.63;;;4.74;59.30
49178;BME280;35016;55.674;37.468;2023-04-06T02:44:57;99714.19;;;4.73;59.78
49178;BME280;35016;55.674;37.468;2023-04-06T02:47:28;99709.84;;;4.72;59.79
49178;BME280;35016;55.674;37.468;2023-04-06T02:49:55;99710.91;;;4.71;59.40
49178;BME280;35016;55.674;37.468;2023-04-06T02:52:22;99705.75;;;4.70;60.00
49178;BME280;35016;55.674;37.468;2023-04-06T02:54:49;99711.53;;;4.66;59.51
49178;BME280;35016;55.674;37.468;2023-04-06T02:57:24;99716.31;;;4.64;59.83
49178;BME280;35016;55.674;37.468;2023-04-06T02:59:51;99721.69;;;4.64;59.91
49178;BME280;35016;55.674;37.468;2023-04-06T03:02:24;99723.53;;;4.64;59.92
49178;BME280;35016;55.674;37.468;2023-04-06T03:04:54;99735.94;;;4.65;59.74
49178;BME280;35016;55.674;37.468;2023-04-06T03:07:28;99734.28;;;4.64;60.08
49178;BME280;35016;55.674;37.468;2023-04-06T03:09:55;99739.44;;;4.65;59.85
49178;BME280;35016;55.674;37.468;2023-04-06T03:12:22;99734.69;;;4.68;59.36
49178;BME280;35016;55.674;37.468;2023-04-06T03:15:08;99736.09;;;4.70;59.90
49178;BME280;35016;55.674;37.468;2023-04-06T03:17:36;99727.84;;;4.72;59.44
49178;BME280;35016;55.674;37.468;2023-04-06T03:20:08;99730.31;;;4.73;59.40
49178;BME280;35016;55.674;37.468;2023-04-06T03:22:35;99725.75;;;4.74;59.34
49178;BME280;35016;55.674;37.468;2023-04-06T03:25:03;99729.66;;;4.78;59.31
49178;BME280;35016;55.674;37.468;2023-04-06T03:27:32;99735.63;;;4.80;59.36
49178;BME280;35016;55.674;37.468;2023-04-06T03:29:59;99744.91;;;4.84;59.61
49178;BME280;35016;55.674;37.468;2023-04-06T03:32:32;99746.31;;;4.86;59.38
49178;BME280;35016;55.674;37.468;2023-04-06T03:34:59;99744.47;;;4.87;59.75
49178;BME280;35016;55.674;37.468;2023-04-06T03:37:26;99745.06;;;4.89;59.37
49178;BME280;35016;55.674;37.468;2023-04-06T03:39:58;99749.41;;;4.90;59.88
49178;BME280;35016;55.674;37.468;2023-04-06T03:42:25;99750.22;;;4.90;59.36
49178;BME280;35016;55.674;37.468;2023-04-06T03:44:59;99757.06;;;4.93;59.35
49178;BME280;35016;55.674;37.468;2023-04-06T03:47:27;99766.34;;;4.97;59.58
49178;BME280;35016;55.674;37.468;2023-04-06T03:49:58;99761.13;;;5.02;59.26
49178;BME280;35016;55.674;37.468;2023-04-06T03:52:25;99765.25;;;5.05;59.78
49178;BME280;35016;55.674;37.468;2023-04-06T03:54:52;99762.50;;;5.11;59.34
49178;BME280;35016;55.674;37.468;2023-04-06T03:57:19;99760.19;;;5.15;59.16
49178;BME280;35016;55.674;37.468;2023-04-06T03:59:46;99763.28;;;5.18;59.18
49178;BME280;35016;55.674;37.468;2023-04-06T04:02:13;99758.31;;;5.22;59.70
49178;BME280;35016;55.674;37.468;2023-04-06T04:04:40;99768.03;;;5.23;59.18
49178;BME280;35016;55.674;37.468;2023-04-06T04:07:07;99771.69;;;5.28;59.66
49178;BME280;35016;55.674;37.468;2023-04-06T04:09:34;99763.19;;;5.32;59.37
49178;BME280;35016;55.674;37.468;2023-04-06T04:12:01;99773.72;;;5.33;59.21
49178;BME280;35016;55.674;37.468;2023-04-06T04:14:30;99776.56;;;5.38;59.14
49178;BME280;35016;55.674;37.468;2023-04-06T04:16:57;99774.06;;;5.43;59.15
49178;BME280;35016;55.674;37.468;2023-04-06T04:19:24;99770.50;;;5.49;58.98
49178;BME280;35016;55.674;37.468;2023-04-06T04:21:51;99775.81;;;5.56;58.94
49178;BME280;35016;55.674;37.468;2023-04-06T04:24:25;99780.53;;;5.60;59.14
49178;BME280;35016;55.674;37.468;2023-04-06T04:26:52;99771.00;;;5.65;59.53
49178;BME280;35016;55.674;37.468;2023-04-06T04:29:20;99773.44;;;5.66;58.94
49178;BME280;35016;55.674;37.468;2023-04-06T04:31:50;99783.78;;;5.69;59.17
49178;BME280;35016;55.674;37.468;2023-04-06T04:34:19;99786.84;;;5.73;59.58
49178;BME280;35016;55.674;37.468;2023-04-06T04:36:49;99785.16;;;5.78;59.40
49178;BME280;35016;55.674;37.468;2023-04-06T04:39:23;99780.97;;;5.82;59.37
49178;BME280;35016;55.674;37.468;2023-04-06T04:41:57;99781.56;;;5.84;58.95
49178;BME280;35016;55.674;37.468;2023-04-06T04:44:24;99777.84;;;5.85;58.82
49178;BME280;35016;55.674;37.468;2023-04-06T04:46:54;99784.25;;;5.84;59.06
49178;BME280;35016;55.674;37.468;2023-04-06T04:49:40;99776.56;;;5.88;59.20
49178;BME280;35016;55.674;37.468;2023-04-06T04:52:08;99783.19;;;5.92;59.46
49178;BME280;35016;55.674;37.468;2023-04-06T04:54:47;99774.88;;;5.94;59.22
49178;BME280;35016;55.674;37.468;2023-04-06T04:57:22;99778.56;;;5.99;59.40
49178;BME280;35016;55.674;37.468;2023-04-06T04:59:49;99775.41;;;6.02;59.55
49178;BME280;35016;55.674;37.468;2023-04-06T05:02:18;99782.41;;;6.10;59.46
49178;BME280;35016;55.674;37.468;2023-04-06T05:05:05;99774.59;;;6.20;59.39
49178;BME280;35016;55.674;37.468;2023-04-06T05:07:32;99777.00;;;6.28;58.92
49178;BME280;35016;55.674;37.468;2023-04-06T05:10:00;99768.84;;;6.35;58.73
49178;BME280;35016;55.674;37.468;2023-04-06T05:12:32;99781.06;;;6.37;58.64
49178;BME280;35016;55.674;37.468;2023-04-06T05:15:05;99782.09;;;6.36;58.63
49178;BME280;35016;55.674;37.468;2023-04-06T05:17:33;99781.25;;;6.36;59.12
49178;BME280;35016;55.674;37.468;2023-04-06T05:20:00;99788.47;;;6.42;58.73
49178;BME280;35016;55.674;37.468;2023-04-06T05:22:30;99787.31;;;6.49;59.17
49178;BME280;35016;55.674;37.468;2023-04-06T05:25:04;99790.53;;;6.58;58.93
49178;BME280;35016;55.674;37.468;2023-04-06T05:27:32;99785.91;;;6.65;58.45
49178;BME280;35016;55.674;37.468;2023-04-06T05:30:04;99784.63;;;6.68;58.92
49178;BME280;35016;55.674;37.468;2023-04-06T05:32:37;99785.00;;;6.71;58.86
49178;BME280;35016;55.674;37.468;2023-04-06T05:35:04;99791.34;;;6.77;58.80
49178;BME280;35016;55.674;37.468;2023-04-06T05:37:33;99790.78;;;6.87;58.79
49178;BME280;35016;55.674;37.468;2023-04-06T05:40:01;99792.19;;;6.89;58.82
49178;BME280;35016;55.674;37.468;2023-04-06T05:42:35;99795.25;;;6.93;58.38
49178;BME280;35016;55.674;37.468;2023-04-06T05:45:04;99796.25;;;6.98;58.73
49178;BME280;35016;55.674;37.468;2023-04-06T05:47:31;99795.78;;;7.01;58.60
49178;BME280;35016;55.674;37.468;2023-04-06T05:50:07;99799.44;;;7.07;58.62
49178;BME280;35016;55.674;37.468;2023-04-06T05:52:37;99806.38;;;7.14;58.59
49178;BME280;35016;55.674;37.468;2023-04-06T05:55:04;99788.66;;;7.19;58.29
49178;BME280;35016;55.674;37.468;2023-04-06T05:57:31;99794.88;;;7.19;58.56
49178;BME280;35016;55.674;37.468;2023-04-06T05:59:58;99798.78;;;7.23;58.09
49178;BME280;35016;55.674;37.468;2023-04-06T06:02:37;99806.78;;;7.30;58.11
49178;BME280;35016;55.674;37.468;2023-04-06T06:05:09;99805.63;;;7.37;58.33
49178;BME280;35016;55.674;37.468;2023-04-06T06:07:39;99806.34;;;7.44;58.00
49178;BME280;35016;55.674;37.468;2023-04-06T06:10:07;99796.72;;;7.49;57.96
49178;BME280;35016;55.674;37.468;2023-04-06T06:12:35;99808.50;;;7.54;57.71
49178;BME280;35016;55.674;37.468;2023-04-06T06:15:03;99800.28;;;7.61;58.05
49178;BME280;35016;55.674;37.468;2023-04-06T06:17:34;99800.63;;;7.64;57.94
49178;BME280;35016;55.674;37.468;2023-04-06T06:20:07;99795.34;;;7.69;57.95
49178;BME280;35016;55.674;37.468;2023-04-06T06:22:34;99798.16;;;7.74;57.91
49178;BME280;35016;55.674;37.468;2023-04-06T06:25:06;99789.97;;;7.81;57.81
49178;BME280;35016;55.674;37.468;2023-04-06T06:27:33;99787.75;;;7.90;58.01
49178;BME280;35016;55.674;37.468;2023-04-06T06:30:00;99790.31;;;7.96;57.79
49178;BME280;35016;55.674;37.468;2023-04-06T06:32:30;99785.84;;;8.02;57.78
49178;BME280;35016;55.674;37.468;2023-04-06T06:34:57;99792.91;;;8.03;57.77
49178;BME280;35016;55.674;37.468;2023-04-06T06:37:28;99782.69;;;8.05;57.70
49178;BME280;35016;55.674;37.468;2023-04-06T06:39:57;99789.63;;;8.13;57.83
49178;BME280;35016;55.674;37.468;2023-04-06T06:42:24;99785.72;;;8.20;57.54
49178;BME280;35016;55.674;37.468;2023-04-06T06:45:06;99792.28;;;8.24;57.56
49178;BME280;35016;55.674;37.468;2023-04-06T06:47:33;99788.06;;;8.28;57.60
49178;BME280;35016;55.674;37.468;2023-04-06T06:50:00;99783.81;;;8.32;57.38
49178;BME280;35016;55.674;37.468;2023-04-06T06:52:29;99787.97;;;8.35;57.36
49178;BME280;35016;55.674;37.468;2023-04-06T06:54:56;99785.63;;;8.38;57.21
49178;BME280;35016;55.674;37.468;2023-04-06T06:57:23;99780.91;;;8.46;57.55
49178;BME280;35016;55.674;37.468;2023-04-06T06:59:54;99786.50;;;8.56;57.41
49178;BME280;35016;55.674;37.468;2023-04-06T07:03:26;99785.19;;;8.70;57.23
49178;BME280;35016;55.674;37.468;2023-04-06T07:06:51;99790.22;;;8.78;57.05
49178;BME280;35016;55.674;37.468;2023-04-06T07:09:19;99784.91;;;8.83;57.04
49178;BME280;35016;55.674;37.468;2023-04-06T07:11:46;99782.53;;;8.87;56.88
49178;BME280;35016;55.674;37.468;2023-04-06T07:14:14;99784.03;;;8.94;56.81
49178;BME280;35016;55.674;37.468;2023-04-06T07:16:41;99790.13;;;9.02;56.89
49178;BME280;35016;55.674;37.468;2023-04-06T07:19:08;99783.75;;;9.08;56.98
49178;BME280;35016;55.674;37.468;2023-04-06T07:21:36;99789.34;;;9.18;56.75
49178;BME280;35016;55.674;37.468;2023-04-06T07:24:03;99776.25;;;9.26;57.16
49178;BME280;35016;55.674;37.468;2023-04-06T07:26:30;99788.56;;;9.34;56.84
49178;BME280;35016;55.674;37.468;2023-04-06T07:28:57;99772.16;;;9.41;56.64
49178;BME280;35016;55.674;37.468;2023-04-06T07:31:25;99782.00;;;9.47;56.33
49178;BME280;35016;55.674;37.468;2023-04-06T07:33:53;99786.41;;;9.53;56.35
49178;BME280;35016;55.674;37.468;2023-04-06T07:36:20;99778.97;;;9.60;56.63
49178;BME280;35016;55.674;37.468;2023-04-06T07:38:47;99792.34;;;9.67;56.49
49178;BME280;35016;55.674;37.468;2023-04-06T07:41:16;99778.06;;;9.71;55.97
49178;BME280;35016;55.674;37.468;2023-04-06T07:43:45;99778.47;;;9.80;56.18
49178;BME280;35016;55.674;37.468;2023-04-06T07:46:12;99793.50;;;9.87;56.30
49178;BME280;35016;55.674;37.468;2023-04-06T07:48:39;99791.44;;;9.94;56.29
49178;BME280;35016;55.674;37.468;2023-04-06T07:51:06;99786.41;;;10.03;56.42
49178;BME280;35016;55.674;37.468;2023-04-06T07:53:37;99783.25;;;10.11;56.00
49178;BME280;35016;55.674;37.468;2023-04-06T07:56:04;99779.59;;;10.17;55.93
49178;BME280;35016;55.674;37.468;2023-04-06T07:58:31;99788.13;;;10.26;55.85
49178;BME280;35016;55.674;37.468;2023-04-06T08:00:58;99787.44;;;10.36;55.64
49178;BME280;35016;55.674;37.468;2023-04-06T08:03:26;99783.25;;;10.45;55.50
49178;BME280;35016;55.674;37.468;2023-04-06T08:05:53;99787.41;;;10.52;55.51
49178;BME280;35016;55.674;37.468;2023-04-06T08:08:20;99773.94;;;10.63;55.07
49178;BME280;35016;55.674;37.468;2023-04-06T08:10:47;99782.16;;;10.68;55.35
49178;BME280;35016;55.674;37.468;2023-04-06T08:13:15;99786.59;;;10.74;55.06
49178;BME280;35016;55.674;37.468;2023-04-06T08:15:42;99782.59;;;10.81;55.55
49178;BME280;35016;55.674;37.468;2023-04-06T08:18:10;99789.72;;;10.88;55.69
49178;BME280;35016;55.674;37.468;2023-04-06T08:20:37;99785.47;;;10.97;55.26
49178;BME280;35016;55.674;37.468;2023-04-06T08:23:04;99790.72;;;11.03;55.45
49178;BME280;35016;55.674;37.468;2023-04-06T08:25:31;99781.53;;;11.09;54.90
49178;BME280;35016;55.674;37.468;2023-04-06T08:27:58;99782.97;;;11.17;55.12
49178;BME280;35016;55.674;37.468;2023-04-06T08:30:25;99790.91;;;11.24;54.64
49178;BME280;35016;55.674;37.468;2023-04-06T08:32:52;99779.03;;;11.30;54.49
49178;BME280;35016;55.674;37.468;2023-04-06T08:35:19;99783.69;;;11.34;55.07
49178;BME280;35016;55.674;37.468;2023-04-06T08:37:47;99786.44;;;11.39;54.20
49178;BME280;35016;55.674;37.468;2023-04-06T08:40:14;99773.47;;;11.46;54.21
49178;BME280;35016;55.674;37.468;2023-04-06T08:42:44;99768.63;;;11.54;54.44
49178;BME280;35016;55.674;37.468;2023-04-06T08:45:12;99769.81;;;11.63;54.34
49178;BME280;35016;55.674;37.468;2023-04-06T08:47:41;99765.81;;;11.70;54.63
49178;BME280;35016;55.674;37.468;2023-04-06T08:50:08;99766.66;;;11.76;54.27
49178;BME280;35016;55.674;37.468;2023-04-06T08:52:35;99770.50;;;11.80;54.03
49178;BME280;35016;55.674;37.468;2023-04-06T08:55:02;99770.81;;;11.84;54.16
49178;BME280;35016;55.674;37.468;2023-04-06T08:57:29;99765.16;;;11.90;54.27
49178;BME280;35016;55.674;37.468;2023-04-06T08:59:57;99778.00;;;12.00;53.65
49178;BME280;35016;55.674;37.468;2023-04-06T09:02:24;99761.75;;;12.10;53.93
49178;BME280;35016;55.674;37.468;2023-04-06T09:04:52;99762.63;;;12.21;53.38
49178;BME280;35016;55.674;37.468;2023-04-06T09:07:20;99772.47;;;12.32;53.42
49178;BME280;35016;55.674;37.468;2023-04-06T09:09:47;99762.72;;;12.41;52.69
49178;BME280;35016;55.674;37.468;2023-04-06T09:12:27;99768.22;;;12.46;53.51
49178;BME280;35016;55.674;37.468;2023-04-06T09:14:54;99766.31;;;12.47;53.39
49178;BME280;35016;55.674;37.468;2023-04-06T09:17:23;99758.97;;;12.52;53.38
49178;BME280;35016;55.674;37.468;2023-04-06T09:19:50;99760.38;;;12.65;53.49
49178;BME280;35016;55.674;37.468;2023-04-06T09:22:17;99768.88;;;12.74;53.14
49178;BME280;35016;55.674;37.468;2023-04-06T09:24:49;99758.28;;;12.82;53.03
49178;BME280;35016;55.674;37.468;2023-04-06T09:27:17;99766.19;;;12.94;52.36
49178;BME280;35016;55.674;37.468;2023-04-06T09:29:44;99765.13;;;13.00;52.79
49178;BME280;35016;55.674;37.468;2023-04-06T09:32:11;99763.78;;;13.08;52.94
49178;BME280;35016;55.674;37.468;2023-04-06T09:34:38;99754.28;;;13.15;52.77
49178;BME280;35016;55.674;37.468;2023-04-06T09:37:18;99746.94;;;13.26;52.72
49178;BME280;35016;55.674;37.468;2023-04-06T09:39:45;99755.97;;;13.37;52.46
49178;BME280;35016;55.674;37.468;2023-04-06T09:42:25;99757.31;;;13.44;52.47
49178;BME280;35016;55.674;37.468;2023-04-06T09:44:54;99753.78;;;13.49;52.52
49178;BME280;35016;55.674;37.468;2023-04-06T09:47:21;99755.69;;;13.48;52.37
49178;BME280;35016;55.674;37.468;2023-04-06T09:49:58;99760.88;;;13.40;51.99
49178;BME280;35016;55.674;37.468;2023-04-06T09:52:40;99749.69;;;13.36;51.25
49178;BME280;35016;55.674;37.468;2023-04-06T09:55:08;99745.63;;;13.39;52.07
49178;BME280;35016;55.674;37.468;2023-04-06T09:57:45;99763.88;;;13.43;52.30
49178;BME280;35016;55.674;37.468;2023-04-06T10:00:16;99745.88;;;13.52;52.16
49178;BME280;35016;55.674;37.468;2023-04-06T10:03:01;99747.25;;;13.65;52.08
49178;BME280;35016;55.674;37.468;2023-04-06T10:05:42;99748.06;;;13.76;51.17
49178;BME280;35016;55.674;37.468;2023-04-06T10:08:11;99744.25;;;13.72;51.72
49178;BME280;35016;55.674;37.468;2023-04-06T10:10:38;99738.78;;;13.72;51.84
49178;BME280;35016;55.674;37.468;2023-04-06T10:13:05;99749.69;;;13.77;51.58
49178;BME280;35016;55.674;37.468;2023-04-06T10:15:32;99743.41;;;13.81;51.72
49178;BME280;35016;55.674;37.468;2023-04-06T10:18:00;99743.94;;;13.83;51.51
49178;BME280;35016;55.674;37.468;2023-04-06T10:25:55;99751.28;;;14.08;51.34
49178;BME280;35016;55.674;37.468;2023-04-06T10:28:23;99741.72;;;14.21;51.01
49178;BME280;35016;55.674;37.468;2023-04-06T10:30:56;99744.66;;;14.35;50.92
49178;BME280;35016;55.674;37.468;2023-04-06T10:33:23;99746.31;;;14.46;51.19
49178;BME280;35016;55.674;37.468;2023-04-06T10:35:50;99750.38;;;14.48;51.11
49178;BME280;35016;55.674;37.468;2023-04-06T10:38:17;99739.19;;;14.50;51.26
49178;BME280;35016;55.674;37.468;2023-04-06T10:40:48;99740.56;;;14.47;50.96
49178;BME280;35016;55.674;37.468;2023-04-06T10:43:18;99746.03;;;14.47;51.20
49178;BME280;35016;55.674;37.468;2023-04-06T10:45:54;99739.47;;;14.48;50.69
49178;BME280;35016;55.674;37.468;2023-04-06T10:48:22;99751.47;;;14.47;50.82
49178;BME280;35016;55.674;37.468;2023-04-06T10:50:53;99750.09;;;14.45;51.04
49178;BME280;35016;55.674;37.468;2023-04-06T10:53:20;99741.09;;;14.39;51.00
49178;BME280;35016;55.674;37.468;2023-04-06T10:55:49;99741.09;;;14.39;50.55
49178;BME280;35016;55.674;37.468;2023-04-06T10:58:19;99740.28;;;14.44;50.92
49178;BME280;35016;55.674;37.468;2023-04-06T11:00:47;99740.84;;;14.46;50.86
49178;BME280;35016;55.674;37.468;2023-04-06T11:03:17;99736.22;;;14.46;50.84
49178;BME280;35016;55.674;37.468;2023-04-06T11:05:44;99740.28;;;14.49;50.64
49178;BME280;35016;55.674;37.468;2023-04-06T11:08:32;99746.81;;;14.53;50.70
49178;BME280;35016;55.674;37.468;2023-04-06T11:11:06;99738.84;;;14.62;50.61
49178;BME280;35016;55.674;37.468;2023-04-06T11:16:11;99740.66;;;14.86;49.94
49178;BME280;35016;55.674;37.468;2023-04-06T11:18:46;99732.94;;;14.94;50.15
49178;BME280;35016;55.674;37.468;2023-04-06T11:21:13;99743.63;;;14.90;49.93
49178;BME280;35016;55.674;37.468;2023-04-06T11:23:42;99740.03;;;14.95;49.59
49178;BME280;35016;55.674;37.468;2023-04-06T11:26:10;99744.91;;;15.03;49.87
49178;BME280;35016;55.674;37.468;2023-04-06T11:28:37;99740.50;;;15.12;49.50
49178;BME280;35016;55.674;37.468;2023-04-06T11:31:05;99744.53;;;15.19;50.01
49178;BME280;35016;55.674;37.468;2023-04-06T11:33:36;99743.75;;;15.14;49.28
49178;BME280;35016;55.674;37.468;2023-04-06T11:36:04;99738.34;;;15.09;49.89
49178;BME280;35016;55.674;37.468;2023-04-06T11:38:32;99724.91;;;15.12;49.77
49178;BME280;35016;55.674;37.468;2023-04-06T11:40:58;99725.69;;;15.18;49.62
49178;BME280;35016;55.674;37.468;2023-04-06T11:43:30;99722.97;;;15.18;49.74
49178;BME280;35016;55.674;37.468;2023-04-06T11:46:00;99729.25;;;15.18;49.88
49178;BME280;35016;55.674;37.468;2023-04-06T11:48:29;99728.66;;;15.22;49.98
49178;BME280;35016;55.674;37.468;2023-04-06T11:50:56;99735.72;;;15.28;49.43
49178;BME280;35016;55.674;37.468;2023-04-06T11:53:24;99728.31;;;15.33;49.75
49178;BME280;35016;55.674;37.468;2023-04-06T11:55:51;99729.91;;;15.39;49.26
49178;BME280;35016;55.674;37.468;2023-04-06T11:58:18;99718.94;;;15.44;48.94
49178;BME280;35016;55.674;37.468;2023-04-06T12:00:45;99725.47;;;15.48;49.04
49178;BME280;35016;55.674;37.468;2023-04-06T12:03:13;99722.16;;;15.52;49.53
49178;BME280;35016;55.674;37.468;2023-04-06T12:05:41;99716.66;;;15.62;49.00
49178;BME280;35016;55.674;37.468;2023-04-06T12:08:08;99717.53;;;15.81;48.95
49178;BME280;35016;55.674;37.468;2023-04-06T12:10:34;99727.13;;;16.07;48.56
49178;BME280;35016;55.674;37.468;2023-04-06T12:13:01;99712.97;;;16.48;48.43
49178;BME280;35016;55.674;37.468;2023-04-06T12:15:28;99722.31;;;16.90;48.05
49178;BME280;35016;55.674;37.468;2023-04-06T12:17:55;99714.34;;;17.45;48.29
49178;BME280;35016;55.674;37.468;2023-04-06T12:20:22;99707.50;;;18.07;47.35
49178;BME280;35016;55.674;37.468;2023-04-06T12:22:52;99712.47;;;18.60;48.59
49178;BME280;35016;55.674;37.468;2023-04-06T12:25:19;99708.03;;;19.00;48.55
49178;BME280;35016;55.674;37.468;2023-04-06T12:27:47;99723.59;;;19.41;47.49
49178;BME280;35016;55.674;37.468;2023-04-06T12:30:14;99705.44;;;19.85;49.02
49178;BME280;35016;55.674;37.468;2023-04-06T12:32:41;99705.41;;;20.47;49.06
49178;BME280;35016;55.674;37.468;2023-04-06T12:35:08;99702.91;;;21.19;47.52
49178;BME280;35016;55.674;37.468;2023-04-06T12:37:35;99698.81;;;21.77;49.34
49178;BME280;35016;55.674;37.468;2023-04-06T12:40:03;99695.72;;;22.25;49.41
49178;BME280;35016;55.674;37.468;2023-04-06T12:42:30;99705.16;;;22.54;49.02
49178;BME280;35016;55.674;37.468;2023-04-06T12:44:57;99701.38;;;22.67;48.25
49178;BME280;35016;55.674;37.468;2023-04-06T12:47:25;99709.44;;;23.02;47.79
49178;BME280;35016;55.674;37.468;2023-04-06T12:49:53;99714.56;;;23.33;47.37
49178;BME280;35016;55.674;37.468;2023-04-06T12:52:21;99700.75;;;23.66;45.54
49178;BME280;35016;55.674;37.468;2023-04-06T12:54:48;99699.31;;;23.81;48.98
49178;BME280;35016;55.674;37.468;2023-04-06T12:57:16;99711.50;;;23.67;47.24
49178;BME280;35016;55.674;37.468;2023-04-06T12:59:43;99705.63;;;23.69;49.00
49178;BME280;35016;55.674;37.468;2023-04-06T13:02:11;99703.25;;;23.92;47.46
49178;BME280;35016;55.674;37.468;2023-04-06T13:04:38;99703.06;;;24.21;48.23
49178;BME280;35016;55.674;37.468;2023-04-06T13:07:05;99704.84;;;24.38;46.21
49178;BME280;35016;55.674;37.468;2023-04-06T13:09:32;99696.75;;;24.57;46.85
49178;BME280;35016;55.674;37.468;2023-04-06T13:11:59;99705.28;;;24.89;47.32
49178;BME280;35016;55.674;37.468;2023-04-06T13:14:27;99707.63;;;25.27;47.13